Time;durP1;ratioP1;P1;durP2;ratioP2;P2;SDS_P1;SDS_P2;PMS_P1;PMS_P2;Temp;Humidity;BMP_temperature;BMP_pressure;BME280_temperature;BME280_humidity;BME280_pressure;Samples;Min_cycle;Max_cycle;Signal;HPM_P1;HPM_P2
2024/01/29 00:01:58;;;;;;;8.15;5.97;;;;;;;8.66;51.07;102534.50;5006978;28;97525;-69
2024/01/29 00:04:25;;;;;;;7.43;5.78;;;;;;;8.66;51.08;102533.63;5004880;28;97349;-69
2024/01/29 00:06:51;;;;;;;7.60;5.63;;;;;;;8.65;51.07;102526.50;5001652;28;97112;-69
2024/01/29 00:09:19;;;;;;;8.85;5.57;;;;;;;8.65;50.86;102532.75;5005822;28;97755;-69
2024/01/29 00:11:46;;;;;;;6.82;5.45;;;;;;;8.64;51.30;102531.00;5002502;28;97669;-69
2024/01/29 00:14:13;;;;;;;7.72;5.20;;;;;;;8.64;50.98;102540.81;5009285;28;96889;-69
2024/01/29 00:16:40;;;;;;;9.43;5.10;;;;;;;8.62;51.10;102532.84;5006915;28;97493;-69
2024/01/29 00:19:06;;;;;;;7.47;5.45;;;;;;;8.60;51.12;102535.59;4999290;28;97554;-69
2024/01/29 00:21:33;;;;;;;8.15;5.45;;;;;;;8.58;51.06;102518.69;4999278;28;97736;-69
2024/01/29 00:24:00;;;;;;;9.65;5.72;;;;;;;8.57;51.12;102521.44;5002033;28;97166;-69
2024/01/29 00:26:28;;;;;;;7.85;5.32;;;;;;;8.56;50.95;102523.22;5000895;28;97182;-69
2024/01/29 00:28:54;;;;;;;6.53;5.40;;;;;;;8.55;51.00;102528.66;5005987;28;97494;-69
2024/01/29 00:31:22;;;;;;;6.95;5.45;;;;;;;8.53;51.23;102531.38;5003713;27;97562;-69
2024/01/29 00:33:51;;;;;;;7.50;5.47;;;;;;;8.53;51.07;102527.81;5004535;28;97415;-69
2024/01/29 00:36:18;;;;;;;9.18;5.72;;;;;;;8.53;50.99;102533.19;5004423;28;97724;-69
2024/01/29 00:38:45;;;;;;;6.82;5.22;;;;;;;8.51;51.14;102533.22;5011486;28;100400;-69
2024/01/29 00:41:12;;;;;;;7.65;6.03;;;;;;;8.50;51.15;102530.63;5003300;28;98650;-69
2024/01/29 00:43:38;;;;;;;8.50;5.78;;;;;;;8.48;51.22;102528.00;5003272;28;97698;-69
2024/01/29 00:46:05;;;;;;;7.90;5.82;;;;;;;8.47;51.20;102525.38;5010778;28;97229;-68
2024/01/29 00:48:32;;;;;;;9.55;5.85;;;;;;;8.45;51.13;102528.09;5012069;27;97529;-69
2024/01/29 00:51:01;;;;;;;6.88;5.53;;;;;;;8.44;51.31;102531.69;5006980;28;97701;-69
2024/01/29 00:53:27;;;;;;;7.63;5.85;;;;;;;8.42;51.14;102530.88;5000129;28;97153;-69
2024/01/29 00:55:54;;;;;;;8.05;5.70;;;;;;;8.40;51.16;102518.47;5004747;28;97290;-69
2024/01/29 00:58:21;;;;;;;8.30;5.63;;;;;;;8.39;51.17;102522.09;5003256;28;97625;-70
2024/01/29 01:00:50;;;;;;;7.72;5.85;;;;;;;8.36;51.31;102517.72;5009176;28;97396;-69
2024/01/29 01:03:17;;;;;;;7.78;5.85;;;;;;;8.36;51.12;102519.53;5003517;28;97299;-69
2024/01/29 01:05:44;;;;;;;7.88;5.43;;;;;;;8.33;51.32;102525.84;5005729;28;97305;-69
2024/01/29 01:08:11;;;;;;;8.45;5.70;;;;;;;8.32;51.31;102528.56;5004884;28;98374;-69
2024/01/29 01:10:38;;;;;;;10.25;6.00;;;;;;;8.32;51.16;102523.19;5007060;28;100297;-69
2024/01/29 01:13:05;;;;;;;7.15;5.50;;;;;;;8.31;51.31;102524.13;5005761;28;96861;-69
2024/01/29 01:15:31;;;;;;;7.65;5.40;;;;;;;8.30;51.34;102533.97;4987357;28;97089;-69
2024/01/29 01:18:00;;;;;;;6.95;5.25;;;;;;;8.30;51.23;102539.31;5006858;27;97890;-69
2024/01/29 01:20:27;;;;;;;8.65;5.60;;;;;;;8.29;51.32;102532.22;5004554;28;100369;-69
2024/01/29 01:22:53;;;;;;;7.18;5.68;;;;;;;8.28;51.35;102528.66;5002344;28;97514;-70
2024/01/29 01:25:20;;;;;;;8.75;5.25;;;;;;;8.27;51.35;102529.59;5007801;28;98014;-69
2024/01/29 01:27:46;;;;;;;7.88;5.57;;;;;;;8.26;51.23;102527.84;5004622;28;97465;-69
2024/01/29 01:30:13;;;;;;;7.65;6.03;;;;;;;8.24;51.27;102534.16;5004196;28;97527;-69
2024/01/29 01:32:40;;;;;;;8.23;5.55;;;;;;;8.25;51.42;102535.91;5006112;28;96804;-69
2024/01/29 01:35:07;;;;;;;10.65;5.82;;;;;;;8.25;51.44;102528.75;4999303;28;97026;-69
2024/01/29 01:37:34;;;;;;;7.47;5.60;;;;;;;8.23;51.43;102530.63;5001974;28;98320;-69
2024/01/29 01:40:01;;;;;;;9.05;6.28;;;;;;;8.21;51.50;102532.47;5012032;28;98002;-69
2024/01/29 01:42:28;;;;;;;9.05;5.95;;;;;;;8.21;51.25;102535.16;4998841;28;96876;-69
2024/01/29 01:44:54;;;;;;;9.35;6.15;;;;;;;8.20;51.44;102532.53;5003765;28;97177;-69
2024/01/29 01:47:23;;;;;;;8.15;5.95;;;;;;;8.18;51.42;102524.56;5007068;28;97942;-69
2024/01/29 01:49:50;;;;;;;9.43;6.47;;;;;;;8.18;51.56;102540.59;5009265;28;98552;-69
2024/01/29 01:52:18;;;;;;;9.07;6.22;;;;;;;8.18;51.51;102545.97;4992073;28;97121;-69
2024/01/29 01:54:45;;;;;;;11.77;6.63;;;;;;;8.18;51.44;102550.44;4999004;28;97365;-69
2024/01/29 01:57:12;;;;;;;8.90;6.00;;;;;;;8.18;51.42;102539.72;5003784;28;98378;-69
2024/01/29 01:59:40;;;;;;;10.18;6.47;;;;;;;8.15;51.33;102548.72;5003686;28;97700;-69
2024/01/29 02:02:07;;;;;;;8.77;6.00;;;;;;;8.14;51.58;102544.28;5005711;28;97235;-69
2024/01/29 02:04:35;;;;;;;7.88;5.80;;;;;;;8.14;51.39;102549.63;5011106;28;98113;-69
2024/01/29 02:07:02;;;;;;;9.88;6.22;;;;;;;8.14;51.60;102552.31;4993675;28;97972;-69
2024/01/29 02:09:30;;;;;;;10.57;5.85;;;;;;;8.11;51.36;102554.22;4992327;28;97616;-69
2024/01/29 02:11:57;;;;;;;10.60;6.30;;;;;;;8.11;51.55;102549.75;5003429;28;96864;-69
2024/01/29 02:14:23;;;;;;;10.43;6.15;;;;;;;8.11;51.53;102549.75;5001971;28;97310;-69
2024/01/29 02:16:50;;;;;;;8.07;5.78;;;;;;;8.10;51.48;102545.31;5008579;27;97374;-69
2024/01/29 02:19:17;;;;;;;7.82;6.35;;;;;;;8.12;51.64;102547.94;5009906;27;97898;-69
2024/01/29 02:21:45;;;;;;;9.75;6.07;;;;;;;8.13;51.63;102549.69;5003085;28;97856;-69
2024/01/29 02:24:12;;;;;;;7.97;5.63;;;;;;;8.13;51.84;102547.00;5007134;28;96962;-69
2024/01/29 02:26:38;;;;;;;9.68;5.55;;;;;;;8.12;51.60;102554.16;5005167;28;98737;-69
2024/01/29 02:29:05;;;;;;;10.30;6.22;;;;;;;8.11;51.88;102547.06;5006202;28;97974;-69
2024/01/29 02:31:32;;;;;;;8.98;6.05;;;;;;;8.13;51.62;102545.22;4996014;28;98991;-69
2024/01/29 02:33:58;;;;;;;9.25;6.13;;;;;;;8.15;51.74;102548.72;4999536;28;97801;-69
2024/01/29 02:36:25;;;;;;;8.65;6.00;;;;;;;8.16;51.52;102546.91;5006093;27;97656;-69
2024/01/29 02:38:52;;;;;;;8.90;6.13;;;;;;;8.15;51.66;102535.31;5010961;28;97671;-69
2024/01/29 02:41:18;;;;;;;8.10;5.93;;;;;;;8.15;51.63;102539.81;5011638;27;97591;-69
2024/01/29 02:43:45;;;;;;;7.32;5.68;;;;;;;8.13;51.49;102537.19;5007591;27;97030;-69
2024/01/29 02:46:12;;;;;;;5.95;5.32;;;;;;;8.13;51.72;102545.22;5015010;28;97720;-69
2024/01/29 02:48:39;;;;;;;9.20;6.03;;;;;;;8.11;51.63;102546.19;5002982;28;97577;-69
2024/01/29 02:51:06;;;;;;;6.57;5.47;;;;;;;8.13;51.93;102547.88;5005759;28;97374;-69
2024/01/29 02:53:33;;;;;;;9.38;5.40;;;;;;;8.10;51.65;102548.00;5019002;27;97207;-69
2024/01/29 02:56:00;;;;;;;7.07;5.65;;;;;;;8.09;51.66;102546.25;5005491;27;97487;-69
2024/01/29 02:58:26;;;;;;;7.40;5.40;;;;;;;8.08;51.61;102548.97;5009300;28;97561;-69
2024/01/29 03:00:53;;;;;;;7.05;5.70;;;;;;;8.07;51.66;102542.75;5005546;28;97579;-69
2024/01/29 03:03:20;;;;;;;9.07;5.55;;;;;;;8.07;51.69;102547.22;5006173;28;97144;-69
2024/01/29 03:05:47;;;;;;;9.60;6.20;;;;;;;8.07;51.97;102545.41;5005237;28;97620;-69
2024/01/29 03:08:14;;;;;;;9.45;5.97;;;;;;;8.07;51.77;102548.09;5009363;27;97612;-69
2024/01/29 03:10:41;;;;;;;7.80;5.35;;;;;;;8.09;51.94;102540.00;5007879;28;97565;-69
2024/01/29 03:13:07;;;;;;;9.65;5.05;;;;;;;8.09;52.09;102540.88;5008661;28;96926;-69
2024/01/29 03:15:34;;;;;;;9.00;6.18;;;;;;;8.11;51.96;102536.34;5009428;28;97726;-69
2024/01/29 03:18:01;;;;;;;7.65;5.45;;;;;;;8.11;51.87;102539.03;5013607;28;97961;-69
2024/01/29 03:20:28;;;;;;;8.32;5.60;;;;;;;8.11;51.71;102543.50;5002919;28;97076;-69
2024/01/29 03:22:55;;;;;;;7.22;5.63;;;;;;;8.12;51.87;102542.59;5005081;28;97637;-69
2024/01/29 03:25:22;;;;;;;7.50;5.72;;;;;;;8.11;51.74;102549.75;5002762;27;98324;-70
2024/01/29 03:27:49;;;;;;;9.60;5.25;;;;;;;8.11;51.78;102540.84;5006995;28;98520;-69
2024/01/29 03:30:15;;;;;;;8.00;5.82;;;;;;;8.11;51.72;102541.72;5009679;28;97196;-69
2024/01/29 03:32:42;;;;;;;7.97;5.63;;;;;;;8.11;51.92;102541.72;5004268;28;97265;-69
2024/01/29 03:35:10;;;;;;;8.32;5.70;;;;;;;8.13;51.84;102547.00;5024801;27;98289;-69
2024/01/29 03:37:37;;;;;;;9.38;5.57;;;;;;;8.13;51.99;102550.56;5001628;28;98735;-69
2024/01/29 03:40:05;;;;;;;6.82;5.47;;;;;;;8.13;52.09;102553.25;5006512;28;98671;-69
2024/01/29 03:42:31;;;;;;;8.07;5.82;;;;;;;8.13;51.94;102549.69;5006227;28;97433;-69
2024/01/29 03:44:58;;;;;;;7.55;5.75;;;;;;;8.12;52.06;102553.28;5009165;28;98188;-69
2024/01/29 03:47:25;;;;;;;9.15;5.50;;;;;;;8.11;52.07;102557.75;5003530;28;98113;-69
2024/01/29 03:49:51;;;;;;;7.95;6.05;;;;;;;8.09;52.04;102545.38;5001479;28;97102;-69
2024/01/29 03:52:18;;;;;;;6.75;5.78;;;;;;;8.08;52.04;102555.19;5000600;28;97463;-69
2024/01/29 03:54:45;;;;;;;8.05;5.22;;;;;;;8.08;52.09;102547.16;5008232;28;97865;-69
2024/01/29 03:57:12;;;;;;;9.00;5.95;;;;;;;8.08;52.19;102547.16;5002374;28;98152;-69
2024/01/29 03:59:39;;;;;;;8.30;6.20;;;;;;;8.06;52.06;102551.69;5001104;28;97627;-69
2024/01/29 04:02:06;;;;;;;6.95;5.85;;;;;;;8.06;52.00;102562.41;5004763;27;97224;-70
2024/01/29 04:04:33;;;;;;;9.18;5.60;;;;;;;8.07;52.21;102552.56;5008123;28;97931;-69
2024/01/29 04:07:00;;;;;;;8.02;6.25;;;;;;;8.08;52.33;102565.91;5004887;28;98341;-69
2024/01/29 04:09:27;;;;;;;10.43;6.07;;;;;;;8.09;52.19;102566.78;5013859;28;97004;-70
2024/01/29 04:11:54;;;;;;;9.23;5.53;;;;;;;8.11;52.06;102562.25;5006424;28;97787;-69
2024/01/29 04:14:21;;;;;;;7.68;6.00;;;;;;;8.12;52.45;102564.00;5008328;28;97429;-69
2024/01/29 04:16:49;;;;;;;9.05;5.70;;;;;;;8.11;52.19;102557.75;4997392;28;98694;-69
2024/01/29 04:19:17;;;;;;;6.32;5.60;;;;;;;8.14;52.02;102567.50;5013064;28;97182;-69
2024/01/29 04:21:44;;;;;;;9.63;5.70;;;;;;;8.13;52.23;102563.06;5006750;27;97183;-69
2024/01/29 04:24:11;;;;;;;6.85;6.00;;;;;;;8.13;52.13;102568.41;5010343;28;97606;-69
2024/01/29 04:26:40;;;;;;;9.48;5.85;;;;;;;8.11;52.10;102565.78;5002934;28;98132;-69
2024/01/29 04:29:08;;;;;;;8.50;5.55;;;;;;;8.12;52.15;102569.34;4994250;28;99086;-69
2024/01/29 04:31:35;;;;;;;7.07;5.93;;;;;;;8.12;52.31;102564.00;4995186;28;98817;-69
2024/01/29 04:34:02;;;;;;;7.30;6.00;;;;;;;8.11;52.31;102571.16;4999696;28;97827;-69
2024/01/29 04:36:29;;;;;;;10.40;5.55;;;;;;;8.11;52.14;102564.91;5004219;28;97975;-70
2024/01/29 04:38:55;;;;;;;9.35;6.10;;;;;;;8.12;52.25;102564.00;5005221;28;97266;-69
2024/01/29 04:41:22;;;;;;;8.98;6.45;;;;;;;8.13;52.39;102566.63;5006661;28;97055;-69
2024/01/29 04:43:49;;;;;;;10.23;6.20;;;;;;;8.11;52.22;102551.53;5001607;28;97621;-69
2024/01/29 04:46:16;;;;;;;7.82;6.15;;;;;;;8.10;52.25;102552.47;5005438;28;97720;-69
2024/01/29 04:48:43;;;;;;;7.60;6.30;;;;;;;8.09;52.40;102554.25;5006662;28;96846;-69
2024/01/29 04:51:11;;;;;;;8.63;6.22;;;;;;;8.07;52.34;102553.44;5008513;28;97251;-69
2024/01/29 04:53:39;;;;;;;7.20;5.80;;;;;;;8.06;52.31;102558.84;5001606;27;97517;-69
2024/01/29 04:56:06;;;;;;;8.07;5.75;;;;;;;8.03;52.20;102557.16;5000776;28;97881;-69
2024/01/29 04:58:33;;;;;;;8.82;6.13;;;;;;;8.01;52.27;102555.44;5007296;28;97389;-69
2024/01/29 05:01:01;;;;;;;7.07;5.70;;;;;;;7.98;52.26;102553.75;4994562;28;98021;-69
2024/01/29 05:03:28;;;;;;;9.20;6.45;;;;;;;7.96;52.38;102561.81;5005327;28;97774;-69
2024/01/29 05:05:55;;;;;;;7.82;6.03;;;;;;;7.95;52.61;102557.41;5005346;27;97845;-69
2024/01/29 05:08:22;;;;;;;8.90;6.43;;;;;;;7.92;52.58;102551.28;5003951;28;96877;-69
2024/01/29 05:10:49;;;;;;;10.32;6.30;;;;;;;7.89;52.43;102544.22;5007349;28;97635;-69
2024/01/29 05:13:17;;;;;;;8.50;6.15;;;;;;;7.88;52.52;102541.59;5005267;28;97748;-69
2024/01/29 05:15:44;;;;;;;10.02;6.30;;;;;;;7.87;52.76;102543.41;5010382;28;98066;-69
2024/01/29 05:18:11;;;;;;;8.57;6.00;;;;;;;7.86;52.60;102540.78;4996261;28;97340;-69
2024/01/29 05:20:38;;;;;;;8.07;6.35;;;;;;;7.85;52.62;102526.53;5000804;28;97283;-69
2024/01/29 05:23:05;;;;;;;9.82;6.30;;;;;;;7.84;52.90;102535.47;5001209;28;97500;-69
2024/01/29 05:25:32;;;;;;;7.30;5.68;;;;;;;7.84;52.85;102527.47;5000499;28;97665;-69
2024/01/29 05:27:59;;;;;;;9.70;6.53;;;;;;;7.86;52.80;102535.44;5004117;28;97146;-69
2024/01/29 05:30:25;;;;;;;7.25;6.43;;;;;;;7.88;52.95;102536.25;5007879;28;97174;-70
2024/01/29 05:32:52;;;;;;;10.15;6.60;;;;;;;7.88;52.96;102541.59;5003064;28;99099;-69
2024/01/29 05:35:19;;;;;;;8.15;6.25;;;;;;;7.88;52.88;102531.78;5006683;28;97751;-69
2024/01/29 05:37:45;;;;;;;10.02;5.88;;;;;;;7.88;53.03;102531.78;5002864;28;98314;-69
2024/01/29 05:40:12;;;;;;;7.78;5.95;;;;;;;7.89;52.98;102536.19;5008413;28;97192;-69
2024/01/29 05:42:40;;;;;;;7.93;5.88;;;;;;;7.89;53.09;102548.69;5001175;27;97528;-69
2024/01/29 05:45:07;;;;;;;8.88;6.47;;;;;;;7.89;53.01;102552.25;5004703;28;97981;-69
2024/01/29 05:47:34;;;;;;;8.07;6.35;;;;;;;7.90;53.05;102559.34;4982153;28;98086;-69
2024/01/29 05:50:02;;;;;;;8.48;6.30;;;;;;;7.92;52.93;102548.59;5007812;28;97191;-69
2024/01/29 05:52:30;;;;;;;9.77;7.07;;;;;;;7.92;53.19;102554.81;4993010;28;97666;-69
2024/01/29 05:54:56;;;;;;;8.45;6.45;;;;;;;7.91;52.78;102549.53;4993196;28;98914;-70
2024/01/29 05:57:23;;;;;;;7.97;6.00;;;;;;;7.90;53.04;102561.16;4995365;28;97059;-69
2024/01/29 05:59:50;;;;;;;10.18;6.20;;;;;;;7.89;53.12;102564.75;4995965;28;97637;-69
2024/01/29 06:02:17;;;;;;;8.90;6.38;;;;;;;7.89;53.01;102565.63;4997618;28;98314;-68
2024/01/29 06:04:44;;;;;;;8.00;6.28;;;;;;;7.90;53.15;102567.38;5003305;28;98114;-69
2024/01/29 06:07:11;;;;;;;11.32;7.15;;;;;;;7.89;53.00;102570.09;5000133;28;97069;-69
2024/01/29 06:09:38;;;;;;;8.35;6.20;;;;;;;7.86;53.43;102564.84;4992213;28;97109;-69
2024/01/29 06:12:05;;;;;;;8.40;6.03;;;;;;;7.82;53.00;102564.06;4993315;28;98794;-69
2024/01/29 06:14:32;;;;;;;7.78;6.13;;;;;;;7.79;53.08;102568.66;4996946;28;100636;-69
2024/01/29 06:16:59;;;;;;;8.23;6.50;;;;;;;7.75;53.07;102561.66;4999403;28;98076;-69
2024/01/29 06:19:25;;;;;;;11.13;6.47;;;;;;;7.73;53.15;102568.84;4996769;28;96842;-69
2024/01/29 06:21:52;;;;;;;9.98;6.45;;;;;;;7.70;53.12;102576.97;4989462;28;97604;-69
2024/01/29 06:24:19;;;;;;;7.63;5.88;;;;;;;7.69;53.33;102576.09;4991208;28;97582;-69
2024/01/29 06:26:45;;;;;;;10.13;6.53;;;;;;;7.70;53.33;102577.84;4983785;28;97174;-69
2024/01/29 06:29:15;;;;;;;9.10;6.10;;;;;;;7.69;53.27;102567.19;4989718;28;97328;-69
2024/01/29 06:31:42;;;;;;;8.95;6.00;;;;;;;7.67;53.48;102571.72;4993543;28;98179;-69
2024/01/29 06:34:09;;;;;;;9.88;6.05;;;;;;;7.67;53.37;102577.06;4996765;28;98185;-69
2024/01/29 06:36:36;;;;;;;8.02;6.28;;;;;;;7.68;53.45;102582.38;4976162;28;98307;-69
2024/01/29 06:39:03;;;;;;;10.20;6.90;;;;;;;7.69;53.36;102578.75;4994958;28;96962;-69
2024/01/29 06:41:31;;;;;;;9.55;6.28;;;;;;;7.71;53.44;102586.75;4988382;28;98084;-69
2024/01/29 06:43:58;;;;;;;8.38;6.93;;;;;;;7.71;53.39;102584.94;4989832;28;98276;-69
2024/01/29 06:46:25;;;;;;;9.38;5.82;;;;;;;7.69;53.50;102573.41;4983726;28;97041;-69
2024/01/29 06:48:51;;;;;;;9.82;6.07;;;;;;;7.64;53.45;102584.25;4991663;28;97740;-69
2024/01/29 06:51:19;;;;;;;7.72;6.22;;;;;;;7.63;53.38;102582.50;5001494;27;97387;-69
2024/01/29 06:53:46;;;;;;;9.35;6.50;;;;;;;7.62;53.74;102585.22;4992196;28;97622;-70
2024/01/29 06:56:13;;;;;;;9.25;6.03;;;;;;;7.63;53.73;102586.97;4989297;28;97692;-69
2024/01/29 06:58:40;;;;;;;7.88;6.63;;;;;;;7.64;53.68;102589.59;5010619;28;96994;-69
2024/01/29 07:01:08;;;;;;;9.73;6.63;;;;;;;7.65;53.86;102594.03;5013422;28;98235;-69
2024/01/29 07:03:35;;;;;;;7.97;6.20;;;;;;;7.68;53.93;102602.88;4998615;28;97363;-69
2024/01/29 07:06:02;;;;;;;8.90;6.70;;;;;;;7.69;53.72;102596.59;5004813;28;99139;-70
2024/01/29 07:08:28;;;;;;;8.77;7.20;;;;;;;7.68;53.67;102608.22;5004779;28;97326;-69
2024/01/29 07:10:55;;;;;;;10.02;7.03;;;;;;;7.69;53.65;102609.97;4990662;28;97518;-69
2024/01/29 07:13:23;;;;;;;13.55;7.57;;;;;;;7.69;53.94;102624.22;4998244;28;97571;-69
2024/01/29 07:15:49;;;;;;;10.57;7.00;;;;;;;7.70;53.82;102615.28;5000767;28;97359;-69
2024/01/29 07:18:17;;;;;;;10.02;6.40;;;;;;;7.70;53.85;102617.94;5001942;28;97574;-69
2024/01/29 07:20:45;;;;;;;9.02;7.03;;;;;;;7.70;54.00;102617.94;5001870;27;98040;-69
2024/01/29 07:23:12;;;;;;;10.10;6.78;;;;;;;7.71;53.99;102627.72;4998568;28;97622;-69
2024/01/29 07:25:39;;;;;;;9.65;7.15;;;;;;;7.72;53.86;102626.81;4991593;28;97526;-69
2024/01/29 07:28:06;;;;;;;10.98;7.00;;;;;;;7.72;54.01;102625.94;4990816;28;97250;-69
2024/01/29 07:30:33;;;;;;;8.90;7.07;;;;;;;7.69;54.03;102632.25;5006236;28;99985;-69
2024/01/29 07:33:01;;;;;;;9.75;6.78;;;;;;;7.68;54.12;102632.28;4999189;28;97464;-69
2024/01/29 07:35:28;;;;;;;10.13;6.32;;;;;;;7.67;54.19;102626.06;5005582;28;96989;-69
2024/01/29 07:37:55;;;;;;;8.52;6.85;;;;;;;7.67;54.29;102633.22;4997437;28;97163;-69
2024/01/29 07:40:22;;;;;;;10.27;7.40;;;;;;;7.66;54.23;102632.34;4996516;28;99853;-69
2024/01/29 07:42:49;;;;;;;8.27;6.40;;;;;;;7.65;54.31;102636.81;4999852;28;97647;-69
2024/01/29 07:45:16;;;;;;;11.57;7.50;;;;;;;7.66;54.32;102632.34;4996873;28;97056;-69
2024/01/29 07:47:44;;;;;;;7.80;6.20;;;;;;;7.66;54.22;102637.69;5011150;28;97316;-69
2024/01/29 07:50:12;;;;;;;11.13;7.88;;;;;;;7.68;54.45;102640.31;5001593;28;97574;-69
2024/01/29 07:52:39;;;;;;;10.98;7.75;;;;;;;7.71;54.33;102637.56;4993002;28;97289;-69
2024/01/29 07:55:05;;;;;;;9.68;6.97;;;;;;;7.75;54.48;102641.88;4991274;28;96891;-69
2024/01/29 07:57:32;;;;;;;11.18;7.85;;;;;;;7.79;54.67;102640.88;5001113;28;97497;-69
2024/01/29 07:59:59;;;;;;;8.68;6.97;;;;;;;7.80;54.36;102639.94;4998627;28;98055;-69
2024/01/29 08:02:26;;;;;;;10.02;6.75;;;;;;;7.83;54.52;102639.84;4988899;28;99806;-69
2024/01/29 08:04:53;;;;;;;9.05;7.35;;;;;;;7.85;54.59;102643.34;5006865;28;97343;-69
2024/01/29 08:07:21;;;;;;;8.63;7.20;;;;;;;7.88;54.59;102635.22;5000786;28;97266;-69
2024/01/29 08:09:48;;;;;;;8.75;6.72;;;;;;;7.90;54.43;102644.97;4998705;28;99651;-69
2024/01/29 08:12:15;;;;;;;8.68;7.13;;;;;;;7.91;54.73;102649.38;5011306;28;97590;-69
2024/01/29 08:14:42;;;;;;;10.48;7.38;;;;;;;7.96;54.68;102652.78;4999288;28;97008;-69
2024/01/29 08:17:09;;;;;;;7.63;6.85;;;;;;;8.01;54.62;102658.00;4994809;28;97408;-69
2024/01/29 08:19:36;;;;;;;11.52;7.32;;;;;;;8.04;54.59;102657.03;4997942;28;98366;-69
2024/01/29 08:22:03;;;;;;;9.98;7.00;;;;;;;8.07;54.65;102657.81;4988683;28;97580;-69
2024/01/29 08:24:31;;;;;;;9.93;6.88;;;;;;;8.11;54.82;102658.56;4992420;28;98395;-69
2024/01/29 08:26:57;;;;;;;11.88;7.97;;;;;;;8.15;54.80;102653.06;4990109;28;97351;-69
2024/01/29 08:29:24;;;;;;;11.25;7.57;;;;;;;8.17;54.70;102659.25;4991737;28;100493;-69
2024/01/29 08:31:51;;;;;;;9.57;7.25;;;;;;;8.21;54.87;102663.63;4990806;28;98233;-69
2024/01/29 08:34:18;;;;;;;10.15;7.10;;;;;;;8.25;54.65;102665.28;4996921;28;97359;-70
2024/01/29 08:36:45;;;;;;;11.68;7.80;;;;;;;8.29;54.74;102661.56;4983615;28;97396;-69
2024/01/29 08:39:12;;;;;;;11.05;8.65;;;;;;;8.34;54.79;102668.59;4971383;28;98222;-69
2024/01/29 08:41:40;;;;;;;8.80;7.65;;;;;;;8.37;54.87;102657.78;4989691;28;96860;-69
2024/01/29 08:44:07;;;;;;;11.68;8.55;;;;;;;8.41;54.95;102662.13;4992005;28;97189;-69
2024/01/29 08:46:34;;;;;;;13.35;9.15;;;;;;;8.44;54.92;102659.34;5003435;28;97157;-69
2024/01/29 08:49:01;;;;;;;13.50;8.18;;;;;;;8.48;54.89;102663.66;4995811;28;97770;-69
2024/01/29 08:51:28;;;;;;;10.82;7.88;;;;;;;8.51;54.75;102651.06;4995119;28;98210;-69
2024/01/29 08:53:56;;;;;;;10.25;7.47;;;;;;;8.55;54.83;102654.50;4995272;28;97521;-69
2024/01/29 08:56:23;;;;;;;14.40;7.75;;;;;;;8.60;54.83;102657.91;5000625;28;97298;-69
2024/01/29 08:58:50;;;;;;;9.63;7.43;;;;;;;8.63;54.96;102663.16;4984956;28;97534;-70
2024/01/29 09:01:17;;;;;;;10.88;7.82;;;;;;;8.69;54.87;102660.25;4982903;28;97562;-69
2024/01/29 09:03:44;;;;;;;9.20;7.32;;;;;;;8.72;54.55;102656.59;4989655;28;96931;-69
2024/01/29 09:06:11;;;;;;;11.88;7.45;;;;;;;8.76;54.99;102658.25;4992376;28;97130;-70
2024/01/29 09:08:38;;;;;;;11.27;7.63;;;;;;;8.80;54.83;102659.91;5001428;28;98261;-69
2024/01/29 09:11:05;;;;;;;10.68;7.85;;;;;;;8.82;54.71;102658.91;4994740;28;97765;-69
2024/01/29 09:13:32;;;;;;;10.20;8.27;;;;;;;8.84;55.06;102651.69;4999931;28;97166;-69
2024/01/29 09:15:59;;;;;;;9.50;7.45;;;;;;;8.87;54.96;102661.44;4993113;28;97531;-70
2024/01/29 09:18:26;;;;;;;8.70;7.13;;;;;;;8.90;55.00;102661.31;5011518;28;99853;-69
2024/01/29 09:20:52;;;;;;;8.45;7.43;;;;;;;8.91;55.14;102660.38;4990251;28;98139;-69
2024/01/29 09:23:19;;;;;;;10.52;7.97;;;;;;;8.94;55.03;102662.13;4987657;28;98165;-69
2024/01/29 09:25:46;;;;;;;11.23;7.68;;;;;;;8.96;54.87;102654.91;4982862;28;96910;-69
2024/01/29 09:28:13;;;;;;;10.57;7.90;;;;;;;9.00;55.05;102656.53;4990119;28;98967;-70
2024/01/29 09:30:40;;;;;;;10.13;7.53;;;;;;;9.04;54.98;102659.06;4989503;28;97844;-70
2024/01/29 09:33:09;;;;;;;9.13;7.35;;;;;;;9.10;55.02;102669.56;4994622;28;97601;-70
2024/01/29 09:35:47;;;;;;;12.57;7.35;;;;;;;9.14;55.05;102673.88;5001103;28;97304;-69
2024/01/29 09:38:14;;;;;;;9.77;8.07;;;;;;;9.18;54.81;102671.97;4991713;28;97512;-69
2024/01/29 09:40:45;;;;;;;9.02;7.60;;;;;;;9.22;54.95;102669.13;4994413;27;97618;-70
2024/01/29 09:43:15;;;;;;;12.88;8.45;;;;;;;9.27;54.95;102673.44;5001024;28;96869;-70
2024/01/29 09:45:42;;;;;;;10.65;7.75;;;;;;;9.31;54.69;102675.06;4988566;28;97192;-69
2024/01/29 09:48:14;;;;;;;10.55;8.15;;;;;;;9.35;55.09;102677.59;5004786;28;97742;-69
2024/01/29 09:50:45;;;;;;;10.75;8.77;;;;;;;9.39;55.14;102675.66;4996856;28;97415;-69
2024/01/29 09:53:11;;;;;;;11.35;8.27;;;;;;;9.45;55.11;102668.25;4999020;28;97114;-69
2024/01/29 09:55:38;;;;;;;11.38;8.73;;;;;;;9.51;55.05;102670.72;4998400;27;97308;-69
2024/01/29 09:58:05;;;;;;;12.57;8.93;;;;;;;9.59;55.07;102677.59;4992386;28;100295;-70
2024/01/29 10:00:31;;;;;;;12.32;8.15;;;;;;;9.66;55.16;102681.78;5006020;28;96901;-69
2024/01/29 10:03:05;;;;;;;10.20;7.97;;;;;;;9.71;55.23;102679.84;5001709;28;96735;-70
2024/01/29 10:05:33;;;;;;;11.65;8.70;;;;;;;9.75;55.02;102679.66;4998715;28;97695;-70
2024/01/29 10:08:01;;;;;;;10.55;8.63;;;;;;;9.80;55.18;102688.41;4998765;28;97927;-70
2024/01/29 10:10:28;;;;;;;14.63;8.65;;;;;;;9.85;55.07;102686.44;4995163;27;97566;-70
2024/01/29 10:13:04;;;;;;;10.65;8.90;;;;;;;9.88;55.13;102688.13;5003816;28;97968;-69
2024/01/29 10:15:31;;;;;;;10.93;8.68;;;;;;;9.91;55.11;102693.38;4984892;28;97105;-70
2024/01/29 10:17:58;;;;;;;10.10;8.60;;;;;;;9.93;55.13;102696.00;4998393;28;97804;-69
2024/01/29 10:20:25;;;;;;;11.35;8.40;;;;;;;9.94;55.07;102692.38;4994388;28;98075;-70
2024/01/29 10:22:59;;;;;;;11.50;8.95;;;;;;;9.96;55.12;102694.06;4982207;28;97163;-70
2024/01/29 10:25:27;;;;;;;11.32;8.63;;;;;;;10.00;55.09;102701.06;4985129;28;97000;-69
2024/01/29 10:28:04;;;;;;;10.50;8.27;;;;;;;10.01;55.06;102691.19;4994717;28;98745;-70
2024/01/29 10:30:30;;;;;;;9.57;8.57;;;;;;;10.05;55.34;102701.75;4988443;28;97550;-69
2024/01/29 10:32:57;;;;;;;13.27;8.90;;;;;;;10.09;55.38;102705.19;5000000;28;97180;-69
2024/01/29 10:35:25;;;;;;;12.52;8.52;;;;;;;10.15;55.25;102707.63;4986946;28;97739;-69
2024/01/29 10:37:59;;;;;;;10.80;8.48;;;;;;;10.18;55.11;102703.00;4988957;28;99580;-70
2024/01/29 10:40:27;;;;;;;13.10;8.55;;;;;;;10.23;55.20;102708.22;5006503;28;97502;-69
2024/01/29 10:42:56;;;;;;;12.65;9.07;;;;;;;10.28;55.28;102705.38;5005609;28;97597;-70
2024/01/29 10:45:25;;;;;;;11.35;9.07;;;;;;;10.32;55.38;102717.72;5002696;28;97868;-70
2024/01/29 10:48:31;;;;;;;11.93;8.90;;;;;;;10.35;55.31;102714.91;4999747;28;97586;-70
2024/01/29 10:50:59;;;;;;;10.93;8.68;;;;;;;10.44;55.56;102717.28;4957019;28;98178;-70
2024/01/29 10:53:27;;;;;;;11.18;8.90;;;;;;;10.49;55.23;102710.78;4938596;28;96989;-70
2024/01/29 10:55:54;;;;;;;11.35;8.57;;;;;;;10.57;55.36;102713.13;4938817;28;97841;-70
2024/01/29 10:58:21;;;;;;;10.73;9.02;;;;;;;10.63;55.58;102714.69;4950245;28;98320;-70
2024/01/29 11:00:50;;;;;;;17.02;9.00;;;;;;;10.66;55.29;102710.06;4958868;28;98748;-70
2024/01/29 11:03:20;;;;;;;12.52;9.98;;;;;;;10.70;55.47;102714.38;4945107;28;97032;-70
2024/01/29 11:05:54;;;;;;;11.05;9.20;;;;;;;10.73;55.40;102716.06;4954308;28;97275;-70
2024/01/29 11:08:24;;;;;;;10.70;8.50;;;;;;;10.78;55.50;102717.63;4955584;28;100691;-70
2024/01/29 11:10:51;;;;;;;11.35;8.82;;;;;;;10.84;55.17;102716.47;4960494;28;97442;-69
2024/01/29 11:13:20;;;;;;;10.48;9.30;;;;;;;10.89;55.51;102716.28;4963594;28;96889;-70
2024/01/29 11:15:47;;;;;;;10.60;8.88;;;;;;;10.94;55.53;102717.84;4963142;28;97711;-70
2024/01/29 11:18:15;;;;;;;9.65;8.13;;;;;;;10.98;55.46;102714.06;4968478;28;97531;-69
2024/01/29 11:20:44;;;;;;;12.88;9.48;;;;;;;11.03;55.45;102712.06;4946708;28;98185;-70
2024/01/29 11:23:11;;;;;;;13.88;9.70;;;;;;;11.08;55.32;102706.47;4994169;28;96965;-69
2024/01/29 11:25:50;;;;;;;12.35;9.25;;;;;;;11.15;55.42;102699.94;4990606;28;97540;-70
2024/01/29 11:28:17;;;;;;;13.00;9.40;;;;;;;11.19;55.34;102708.72;5012619;28;97868;-70
2024/01/29 11:30:58;;;;;;;12.05;9.80;;;;;;;11.23;55.22;102700.47;4992408;28;97421;-69